الصفحة الرئيسية
METAR-TAF:

METAR-TAF

مطار :

مطار بيلغورود

بيلغورود, روسيا

دائرة عرض: 50-38-36N, خط طول: 036-35-24E, ارتفاع: 224 متر

مراقبة الطقس الحالي

تاريخ ووقت الإصدار 34 دقيقة قبل الساعة 12:00UTC
ريح 12 عقدة من الجنوب الشرقي
درجة الحرارة 0°درجة مئوية
الرطوبة 86%
ضغط 1024 hPa
الرؤية 10 كم أو أكثر
ملبد بالغيوم على ارتفاع 800 قدم

METAR: UUOB 231200Z 13006MPS 9999 OVC008 M00/M02 Q1024 R11/810360 NOSIG

زمن: 15:34 (12:34 UTC)

توقعات

تاريخ ووقت الإصدار 1ساعة و 39 دقيقة قبل الساعة 10:55UTC
التوقعات صالحة من23 الساعة 12 UTC إلى 23 الساعة 21 UTC
ريح 10 عقدة من الجنوب/الجنوب الشرقي تتزايد حتى 19 عقدة
الرؤية: 6000 متر
ملبد بالغيوم على ارتفاع 600 قدم

TAF: UUOB 231055Z 2312/2321 16005G10MPS 6000 OVC006

أرصاد الطقس والتوقعات من أكثر من 4000 مطار (تقارير الطقس للمطار METAR والتنبؤ بالطقس بالمطارTAF).

المحطات المتاحة هي النقط الصفراء والحمراء على الخريطة.

حرك المؤشر فوق النقطة لمعرفة اسم المحطة.

ثم انقر لمعرفة أرصاد وتوقعات الطقس.

لتغيير الخارطة: اضغط على الأزرار الخضراء مع رمز الصليب الأسود للتكبير. على الزر الأخضر مع شرطة للتصغير، أو على الأسهم الخضراء للخرائط المجاورة.


METAR-TAF: